sensor_id;sensor_type;location;lat;lon;timestamp;pressure;altitude;pressure_sealevel;temperature
53667;BMP280;39568;51.026;5.468;2022-11-06T00:00:39;100721.66;;;8.88
53667;BMP280;39568;51.026;5.468;2022-11-06T00:03:07;100721.66;;;8.88
53667;BMP280;39568;51.026;5.468;2022-11-06T00:05:34;100724.22;;;8.77
53667;BMP280;39568;51.026;5.468;2022-11-06T00:08:26;100724.47;;;8.79
53667;BMP280;39568;51.026;5.468;2022-11-06T00:10:54;100715.31;;;8.80
53667;BMP280;39568;51.026;5.468;2022-11-06T00:13:21;100724.47;;;8.79
53667;BMP280;39568;51.026;5.468;2022-11-06T00:15:49;100723.72;;;8.78
53667;BMP280;39568;51.026;5.468;2022-11-06T00:18:17;100723.72;;;8.78
53667;BMP280;39568;51.026;5.468;2022-11-06T00:20:47;100717.47;;;8.76
53667;BMP280;39568;51.026;5.468;2022-11-06T00:23:18;100703.00;;;8.77
53667;BMP280;39568;51.026;5.468;2022-11-06T00:25:46;100693.09;;;8.77
53667;BMP280;39568;51.026;5.468;2022-11-06T00:28:39;100696.69;;;8.74
53667;BMP280;39568;51.026;5.468;2022-11-06T00:31:10;100694.53;;;8.73
53667;BMP280;39568;51.026;5.468;2022-11-06T00:33:37;100706.38;;;8.77
53667;BMP280;39568;51.026;5.468;2022-11-06T00:36:06;100713.13;;;8.78
53667;BMP280;39568;51.026;5.468;2022-11-06T00:38:33;100702.78;;;8.80
53667;BMP280;39568;51.026;5.468;2022-11-06T00:41:01;100703.81;;;8.88
53667;BMP280;39568;51.026;5.468;2022-11-06T00:43:28;100708.91;;;8.92
53667;BMP280;39568;51.026;5.468;2022-11-06T00:46:00;100707.00;;;8.98
53667;BMP280;39568;51.026;5.468;2022-11-06T00:48:27;100696.16;;;8.96
53667;BMP280;39568;51.026;5.468;2022-11-06T00:50:54;100700.94;;;8.92
53667;BMP280;39568;51.026;5.468;2022-11-06T00:53:21;100677.31;;;8.94
53667;BMP280;39568;51.026;5.468;2022-11-06T00:55:47;100679.69;;;8.86
53667;BMP280;39568;51.026;5.468;2022-11-06T00:58:14;100691.25;;;8.89
53667;BMP280;39568;51.026;5.468;2022-11-06T01:00:41;100689.03;;;8.82
53667;BMP280;39568;51.026;5.468;2022-11-06T01:03:07;100676.28;;;8.86
53667;BMP280;39568;51.026;5.468;2022-11-06T01:05:35;100677.50;;;8.85
53667;BMP280;39568;51.026;5.468;2022-11-06T01:08:02;100680.88;;;8.85
53667;BMP280;39568;51.026;5.468;2022-11-06T01:10:31;100680.41;;;8.87
53667;BMP280;39568;51.026;5.468;2022-11-06T01:13:12;100699.22;;;8.89
53667;BMP280;39568;51.026;5.468;2022-11-06T01:15:38;100696.38;;;8.92
53667;BMP280;39568;51.026;5.468;2022-11-06T01:18:10;100692.81;;;9.01
53667;BMP280;39568;51.026;5.468;2022-11-06T01:20:38;100687.25;;;8.99
53667;BMP280;39568;51.026;5.468;2022-11-06T01:23:05;100685.13;;;9.03
53667;BMP280;39568;51.026;5.468;2022-11-06T01:25:31;100684.19;;;9.06
53667;BMP280;39568;51.026;5.468;2022-11-06T01:27:58;100674.97;;;9.02
53667;BMP280;39568;51.026;5.468;2022-11-06T01:30:25;100675.91;;;8.98
53667;BMP280;39568;51.026;5.468;2022-11-06T01:32:53;100670.31;;;8.91
53667;BMP280;39568;51.026;5.468;2022-11-06T01:35:22;100671.28;;;8.93
53667;BMP280;39568;51.026;5.468;2022-11-06T01:37:50;100670.56;;;8.93
53667;BMP280;39568;51.026;5.468;2022-11-06T01:40:17;100679.97;;;8.94
53667;BMP280;39568;51.026;5.468;2022-11-06T01:42:44;100673.72;;;8.97
53667;BMP280;39568;51.026;5.468;2022-11-06T01:45:24;100679.81;;;9.03
53667;BMP280;39568;51.026;5.468;2022-11-06T01:47:55;100688.50;;;9.09
53667;BMP280;39568;51.026;5.468;2022-11-06T01:50:22;100673.13;;;9.13
53667;BMP280;39568;51.026;5.468;2022-11-06T01:52:51;100669.81;;;9.24
53667;BMP280;39568;51.026;5.468;2022-11-06T01:55:21;100671.47;;;9.21
53667;BMP280;39568;51.026;5.468;2022-11-06T01:57:48;100669.75;;;9.18
53667;BMP280;39568;51.026;5.468;2022-11-06T02:00:15;100652.69;;;9.25
53667;BMP280;39568;51.026;5.468;2022-11-06T02:02:42;100650.28;;;9.27
53667;BMP280;39568;51.026;5.468;2022-11-06T02:05:12;100642.03;;;9.19
53667;BMP280;39568;51.026;5.468;2022-11-06T02:07:42;100644.22;;;9.26
53667;BMP280;39568;51.026;5.468;2022-11-06T02:10:11;100633.13;;;9.22
53667;BMP280;39568;51.026;5.468;2022-11-06T02:12:44;100648.31;;;9.22
53667;BMP280;39568;51.026;5.468;2022-11-06T02:15:19;100618.88;;;9.25
53667;BMP280;39568;51.026;5.468;2022-11-06T02:18:00;100622.31;;;9.31
53667;BMP280;39568;51.026;5.468;2022-11-06T02:20:33;100624.47;;;9.27
53667;BMP280;39568;51.026;5.468;2022-11-06T02:23:21;100631.19;;;9.28
53667;BMP280;39568;51.026;5.468;2022-11-06T02:26:01;100636.31;;;9.37
53667;BMP280;39568;51.026;5.468;2022-11-06T02:28:36;100635.34;;;9.35
53667;BMP280;39568;51.026;5.468;2022-11-06T02:31:08;100622.06;;;9.35
53667;BMP280;39568;51.026;5.468;2022-11-06T02:33:39;100619.19;;;9.38
53667;BMP280;39568;51.026;5.468;2022-11-06T02:36:11;100621.59;;;9.36
53667;BMP280;39568;51.026;5.468;2022-11-06T02:38:42;100606.38;;;9.31
53667;BMP280;39568;51.026;5.468;2022-11-06T02:41:15;100613.63;;;9.31
53667;BMP280;39568;51.026;5.468;2022-11-06T02:43:47;100616.53;;;9.33
53667;BMP280;39568;51.026;5.468;2022-11-06T02:46:18;100603.72;;;9.31
53667;BMP280;39568;51.026;5.468;2022-11-06T02:48:51;100608.31;;;9.31
53667;BMP280;39568;51.026;5.468;2022-11-06T02:51:21;100611.22;;;9.33
53667;BMP280;39568;51.026;5.468;2022-11-06T02:53:51;100606.59;;;9.28
53667;BMP280;39568;51.026;5.468;2022-11-06T02:56:23;100613.38;;;9.34
53667;BMP280;39568;51.026;5.468;2022-11-06T02:58:55;100626.69;;;9.40
53667;BMP280;39568;51.026;5.468;2022-11-06T03:01:26;100628.63;;;9.39
53667;BMP280;39568;51.026;5.468;2022-11-06T03:03:58;100631.78;;;9.43
53667;BMP280;39568;51.026;5.468;2022-11-06T03:06:29;100620.66;;;9.45
53667;BMP280;39568;51.026;5.468;2022-11-06T03:09:01;100622.09;;;9.40
53667;BMP280;39568;51.026;5.468;2022-11-06T03:11:31;100618.75;;;9.45
53667;BMP280;39568;51.026;5.468;2022-11-06T03:14:06;100602.56;;;9.43
53667;BMP280;39568;51.026;5.468;2022-11-06T03:16:41;100592.00;;;9.54
53667;BMP280;39568;51.026;5.468;2022-11-06T03:19:18;100595.81;;;9.42
53667;BMP280;39568;51.026;5.468;2022-11-06T03:21:53;100602.53;;;9.38
53667;BMP280;39568;51.026;5.468;2022-11-06T03:24:28;100600.41;;;9.42
53667;BMP280;39568;51.026;5.468;2022-11-06T03:26:57;100584.22;;;9.45
53667;BMP280;39568;51.026;5.468;2022-11-06T03:29:31;100587.59;;;9.46
53667;BMP280;39568;51.026;5.468;2022-11-06T03:32:06;100590.72;;;9.44
53667;BMP280;39568;51.026;5.468;2022-11-06T03:34:38;100576.53;;;9.47
53667;BMP280;39568;51.026;5.468;2022-11-06T03:37:12;100575.31;;;9.48
53667;BMP280;39568;51.026;5.468;2022-11-06T03:39:45;100573.13;;;9.47
53667;BMP280;39568;51.026;5.468;2022-11-06T03:42:15;100561.75;;;9.41
53667;BMP280;39568;51.026;5.468;2022-11-06T03:44:48;100563.69;;;9.40
53667;BMP280;39568;51.026;5.468;2022-11-06T03:47:21;100563.69;;;9.40
53667;BMP280;39568;51.026;5.468;2022-11-06T03:49:51;100554.97;;;9.34
53667;BMP280;39568;51.026;5.468;2022-11-06T03:52:24;100561.25;;;9.31
53667;BMP280;39568;51.026;5.468;2022-11-06T03:54:55;100553.03;;;9.35
53667;BMP280;39568;51.026;5.468;2022-11-06T03:57:26;100549.91;;;9.31
53667;BMP280;39568;51.026;5.468;2022-11-06T03:59:58;100552.31;;;9.34
53667;BMP280;39568;51.026;5.468;2022-11-06T04:02:29;100550.88;;;9.33
53667;BMP280;39568;51.026;5.468;2022-11-06T04:04:59;100546.25;;;9.28
53667;BMP280;39568;51.026;5.468;2022-11-06T04:07:34;100546.72;;;9.27
53667;BMP280;39568;51.026;5.468;2022-11-06T04:10:05;100534.19;;;9.27
53667;BMP280;39568;51.026;5.468;2022-11-06T04:12:52;100536.56;;;9.25
53667;BMP280;39568;51.026;5.468;2022-11-06T04:15:42;100526.69;;;9.20
53667;BMP280;39568;51.026;5.468;2022-11-06T04:18:12;100520.38;;;9.18
53667;BMP280;39568;51.026;5.468;2022-11-06T04:20:48;100511.47;;;9.15
53667;BMP280;39568;51.026;5.468;2022-11-06T04:23:40;100502.72;;;9.09
53667;BMP280;39568;51.026;5.468;2022-11-06T04:26:14;100509.97;;;9.09
53667;BMP280;39568;51.026;5.468;2022-11-06T04:29:16;100499.09;;;9.07
53667;BMP280;39568;51.026;5.468;2022-11-06T04:31:54;100499.09;;;9.07
53667;BMP280;39568;51.026;5.468;2022-11-06T04:34:29;100505.84;;;9.02
53667;BMP280;39568;51.026;5.468;2022-11-06T04:37:02;100508.00;;;8.98
53667;BMP280;39568;51.026;5.468;2022-11-06T04:39:39;100502.41;;;8.90
53667;BMP280;39568;51.026;5.468;2022-11-06T04:42:16;100509.91;;;8.97
53667;BMP280;39568;51.026;5.468;2022-11-06T04:44:48;100497.38;;;8.98
53667;BMP280;39568;51.026;5.468;2022-11-06T04:47:19;100508.00;;;8.98
53667;BMP280;39568;51.026;5.468;2022-11-06T04:49:57;100508.22;;;8.94
53667;BMP280;39568;51.026;5.468;2022-11-06T04:52:27;100503.66;;;8.95
53667;BMP280;39568;51.026;5.468;2022-11-06T04:54:55;100510.91;;;9.00
53667;BMP280;39568;51.026;5.468;2022-11-06T04:57:23;100495.72;;;9.01
53667;BMP280;39568;51.026;5.468;2022-11-06T04:59:52;100519.63;;;9.06
53667;BMP280;39568;51.026;5.468;2022-11-06T05:02:22;100489.69;;;9.00
53667;BMP280;39568;51.026;5.468;2022-11-06T05:04:49;100506.38;;;9.06
53667;BMP280;39568;51.026;5.468;2022-11-06T05:07:17;100483.69;;;9.11
53667;BMP280;39568;51.026;5.468;2022-11-06T05:09:45;100480.06;;;9.08
53667;BMP280;39568;51.026;5.468;2022-11-06T05:12:46;100492.84;;;9.10
53667;BMP280;39568;51.026;5.468;2022-11-06T05:15:12;100476.97;;;9.15
53667;BMP280;39568;51.026;5.468;2022-11-06T05:17:39;100485.63;;;9.16
53667;BMP280;39568;51.026;5.468;2022-11-06T05:20:06;100476.00;;;9.18
53667;BMP280;39568;51.026;5.468;2022-11-06T05:22:33;100462.50;;;9.27
53667;BMP280;39568;51.026;5.468;2022-11-06T05:25:17;100468.78;;;9.24
53667;BMP280;39568;51.026;5.468;2022-11-06T05:27:45;100480.13;;;9.30
53667;BMP280;39568;51.026;5.468;2022-11-06T05:30:12;100453.31;;;9.28
53667;BMP280;39568;51.026;5.468;2022-11-06T05:32:39;100475.31;;;9.34
53667;BMP280;39568;51.026;5.468;2022-11-06T05:35:06;100469.03;;;9.37
53667;BMP280;39568;51.026;5.468;2022-11-06T05:37:32;100462.53;;;9.44
53667;BMP280;39568;51.026;5.468;2022-11-06T05:39:59;100462.06;;;9.45
53667;BMP280;39568;51.026;5.468;2022-11-06T05:42:26;100464.50;;;9.49
53667;BMP280;39568;51.026;5.468;2022-11-06T05:44:57;100451.22;;;9.43
53667;BMP280;39568;51.026;5.468;2022-11-06T05:47:35;100460.88;;;9.46
53667;BMP280;39568;51.026;5.468;2022-11-06T05:50:01;100468.34;;;9.48
53667;BMP280;39568;51.026;5.468;2022-11-06T05:52:28;100443.50;;;9.56
53667;BMP280;39568;51.026;5.468;2022-11-06T05:54:55;100455.56;;;9.52
53667;BMP280;39568;51.026;5.468;2022-11-06T05:57:21;100457.94;;;9.44
53667;BMP280;39568;51.026;5.468;2022-11-06T05:59:48;100452.22;;;9.51
53667;BMP280;39568;51.026;5.468;2022-11-06T06:02:16;100445.91;;;9.54
53667;BMP280;39568;51.026;5.468;2022-11-06T06:04:42;100436.97;;;9.52
53667;BMP280;39568;51.026;5.468;2022-11-06T06:07:09;100443.25;;;9.49
53667;BMP280;39568;51.026;5.468;2022-11-06T06:09:36;100427.06;;;9.41
53667;BMP280;39568;51.026;5.468;2022-11-06T06:12:03;100429.25;;;9.43
53667;BMP280;39568;51.026;5.468;2022-11-06T06:14:30;100440.09;;;9.39
53667;BMP280;39568;51.026;5.468;2022-11-06T06:16:57;100481.84;;;9.44
53667;BMP280;39568;51.026;5.468;2022-11-06T06:19:25;100438.91;;;9.46
53667;BMP280;39568;51.026;5.468;2022-11-06T06:21:52;100425.34;;;9.44
53667;BMP280;39568;51.026;5.468;2022-11-06T06:24:18;100431.91;;;9.48
53667;BMP280;39568;51.026;5.468;2022-11-06T06:26:45;100424.41;;;9.52
53667;BMP280;39568;51.026;5.468;2022-11-06T06:29:12;100442.03;;;9.55
53667;BMP280;39568;51.026;5.468;2022-11-06T06:31:39;100428.50;;;9.48
53667;BMP280;39568;51.026;5.468;2022-11-06T06:34:05;100424.16;;;9.45
53667;BMP280;39568;51.026;5.468;2022-11-06T06:36:34;100422.69;;;9.44
53667;BMP280;39568;51.026;5.468;2022-11-06T06:39:02;100423.69;;;9.46
53667;BMP280;39568;51.026;5.468;2022-11-06T06:41:32;100429.47;;;9.45
53667;BMP280;39568;51.026;5.468;2022-11-06T06:43:59;100416.69;;;9.43
53667;BMP280;39568;51.026;5.468;2022-11-06T06:46:25;100433.56;;;9.40
53667;BMP280;39568;51.026;5.468;2022-11-06T06:48:53;100431.19;;;9.42
53667;BMP280;39568;51.026;5.468;2022-11-06T06:51:20;100430.69;;;9.38
53667;BMP280;39568;51.026;5.468;2022-11-06T06:53:48;100423.44;;;9.44
53667;BMP280;39568;51.026;5.468;2022-11-06T06:56:15;100433.13;;;9.47
53667;BMP280;39568;51.026;5.468;2022-11-06T06:58:42;100438.66;;;9.49
53667;BMP280;39568;51.026;5.468;2022-11-06T07:01:09;100427.31;;;9.49
53667;BMP280;39568;51.026;5.468;2022-11-06T07:03:36;100424.88;;;9.45
53667;BMP280;39568;51.026;5.468;2022-11-06T07:06:04;100430.69;;;9.49
53667;BMP280;39568;51.026;5.468;2022-11-06T07:08:31;100432.38;;;9.41
53667;BMP280;39568;51.026;5.468;2022-11-06T07:11:00;100424.66;;;9.43
53667;BMP280;39568;51.026;5.468;2022-11-06T07:13:29;100432.38;;;9.52
53667;BMP280;39568;51.026;5.468;2022-11-06T07:15:58;100444.44;;;9.53
53667;BMP280;39568;51.026;5.468;2022-11-06T07:18:24;100445.94;;;9.66
53667;BMP280;39568;51.026;5.468;2022-11-06T07:20:51;100443.78;;;9.70
53667;BMP280;39568;51.026;5.468;2022-11-06T07:23:18;100444.25;;;9.85
53667;BMP280;39568;51.026;5.468;2022-11-06T07:25:50;100442.28;;;9.91
53667;BMP280;39568;51.026;5.468;2022-11-06T07:28:20;100429.97;;;9.99
53667;BMP280;39568;51.026;5.468;2022-11-06T07:30:47;100442.06;;;10.00
53667;BMP280;39568;51.026;5.468;2022-11-06T07:33:14;100446.63;;;10.05
53667;BMP280;39568;51.026;5.468;2022-11-06T07:35:42;100448.56;;;9.99
53667;BMP280;39568;51.026;5.468;2022-11-06T07:38:09;100436.75;;;10.00
53667;BMP280;39568;51.026;5.468;2022-11-06T07:40:36;100445.91;;;9.99
53667;BMP280;39568;51.026;5.468;2022-11-06T07:43:04;100447.13;;;9.98
53667;BMP280;39568;51.026;5.468;2022-11-06T07:45:33;100438.94;;;9.96
53667;BMP280;39568;51.026;5.468;2022-11-06T07:48:01;100441.09;;;9.97
53667;BMP280;39568;51.026;5.468;2022-11-06T07:50:28;100444.97;;;10.02
53667;BMP280;39568;51.026;5.468;2022-11-06T07:52:55;100440.59;;;9.99
53667;BMP280;39568;51.026;5.468;2022-11-06T07:55:22;100432.38;;;9.97
53667;BMP280;39568;51.026;5.468;2022-11-06T07:57:48;100435.28;;;9.99
53667;BMP280;39568;51.026;5.468;2022-11-06T08:00:15;100444.22;;;10.07
53667;BMP280;39568;51.026;5.468;2022-11-06T08:02:49;100416.28;;;10.63
53667;BMP280;39568;51.026;5.468;2022-11-06T08:05:16;100434.13;;;11.26
53667;BMP280;39568;51.026;5.468;2022-11-06T08:07:43;100412.63;;;11.48
53667;BMP280;39568;51.026;5.468;2022-11-06T08:10:09;100420.69;;;11.72
53667;BMP280;39568;51.026;5.468;2022-11-06T08:12:40;100417.72;;;11.81
53667;BMP280;39568;51.026;5.468;2022-11-06T08:15:07;100416.13;;;11.91
53667;BMP280;39568;51.026;5.468;2022-11-06T08:17:37;100414.84;;;12.03
53667;BMP280;39568;51.026;5.468;2022-11-06T08:20:12;100427.78;;;11.94
53667;BMP280;39568;51.026;5.468;2022-11-06T08:22:39;100401.22;;;11.83
53667;BMP280;39568;51.026;5.468;2022-11-06T08:25:07;100414.44;;;12.18
53667;BMP280;39568;51.026;5.468;2022-11-06T08:27:34;100409.28;;;12.44
53667;BMP280;39568;51.026;5.468;2022-11-06T08:30:01;100400.06;;;12.64
53667;BMP280;39568;51.026;5.468;2022-11-06T08:32:28;100391.25;;;12.32
53667;BMP280;39568;51.026;5.468;2022-11-06T08:34:55;100393.72;;;12.67
53667;BMP280;39568;51.026;5.468;2022-11-06T08:37:23;100373.88;;;12.25
53667;BMP280;39568;51.026;5.468;2022-11-06T08:39:50;100371.31;;;11.36
53667;BMP280;39568;51.026;5.468;2022-11-06T08:42:23;100376.88;;;11.03
53667;BMP280;39568;51.026;5.468;2022-11-06T08:44:50;100375.03;;;10.87
53667;BMP280;39568;51.026;5.468;2022-11-06T08:47:19;100376.28;;;10.86
53667;BMP280;39568;51.026;5.468;2022-11-06T08:49:50;100375.56;;;10.85
53667;BMP280;39568;51.026;5.468;2022-11-06T08:52:17;100380.31;;;10.98
53667;BMP280;39568;51.026;5.468;2022-11-06T08:54:45;100371.88;;;10.94
53667;BMP280;39568;51.026;5.468;2022-11-06T08:57:12;100366.81;;;10.90
53667;BMP280;39568;51.026;5.468;2022-11-06T08:59:41;100361.97;;;10.89
53667;BMP280;39568;51.026;5.468;2022-11-06T09:02:10;100360.50;;;10.93
53667;BMP280;39568;51.026;5.468;2022-11-06T09:04:37;100344.31;;;10.91
53667;BMP280;39568;51.026;5.468;2022-11-06T09:07:04;100338.25;;;10.91
53667;BMP280;39568;51.026;5.468;2022-11-06T09:09:30;100363.34;;;11.01
53667;BMP280;39568;51.026;5.468;2022-11-06T09:11:59;100353.94;;;10.94
53667;BMP280;39568;51.026;5.468;2022-11-06T09:14:26;100346.53;;;10.81
53667;BMP280;39568;51.026;5.468;2022-11-06T09:16:53;100349.66;;;10.86
53667;BMP280;39568;51.026;5.468;2022-11-06T09:19:20;100335.13;;;10.87
53667;BMP280;39568;51.026;5.468;2022-11-06T09:21:47;100325.09;;;10.63
53667;BMP280;39568;51.026;5.468;2022-11-06T09:24:13;100330.22;;;10.61
53667;BMP280;39568;51.026;5.468;2022-11-06T09:26:40;100320.84;;;10.90
53667;BMP280;39568;51.026;5.468;2022-11-06T09:29:09;100315.25;;;10.93
53667;BMP280;39568;51.026;5.468;2022-11-06T09:31:36;100309.25;;;10.87
53667;BMP280;39568;51.026;5.468;2022-11-06T09:34:03;100309.72;;;10.91
53667;BMP280;39568;51.026;5.468;2022-11-06T09:36:29;100305.41;;;11.42
53667;BMP280;39568;51.026;5.468;2022-11-06T09:38:56;100292.44;;;11.81
53667;BMP280;39568;51.026;5.468;2022-11-06T09:41:31;100313.06;;;11.51
53667;BMP280;39568;51.026;5.468;2022-11-06T09:44:12;100305.66;;;11.14
53667;BMP280;39568;51.026;5.468;2022-11-06T09:46:47;100291.44;;;11.06
53667;BMP280;39568;51.026;5.468;2022-11-06T09:49:19;100303.25;;;11.11
53667;BMP280;39568;51.026;5.468;2022-11-06T09:51:52;100310.81;;;11.07
53667;BMP280;39568;51.026;5.468;2022-11-06T09:54:24;100297.44;;;11.12
53667;BMP280;39568;51.026;5.468;2022-11-06T09:56:57;100295.19;;;10.92
53667;BMP280;39568;51.026;5.468;2022-11-06T09:59:27;100292.25;;;10.96
53667;BMP280;39568;51.026;5.468;2022-11-06T10:01:57;100314.00;;;11.00
53667;BMP280;39568;51.026;5.468;2022-11-06T10:04:38;100295.22;;;11.16
53667;BMP280;39568;51.026;5.468;2022-11-06T10:07:16;100300.91;;;11.31
53667;BMP280;39568;51.026;5.468;2022-11-06T10:09:45;100297.31;;;11.29
53667;BMP280;39568;51.026;5.468;2022-11-06T10:12:20;100289.56;;;11.31
53667;BMP280;39568;51.026;5.468;2022-11-06T10:14:59;100287.25;;;11.46
53667;BMP280;39568;51.026;5.468;2022-11-06T10:17:37;100288.38;;;11.26
53667;BMP280;39568;51.026;5.468;2022-11-06T10:20:11;100278.72;;;11.23
53667;BMP280;39568;51.026;5.468;2022-11-06T10:22:50;100275.00;;;11.32
53667;BMP280;39568;51.026;5.468;2022-11-06T10:25:23;100285.03;;;11.20
53667;BMP280;39568;51.026;5.468;2022-11-06T10:28:00;100289.56;;;11.31
53667;BMP280;39568;51.026;5.468;2022-11-06T10:30:35;100284.22;;;11.31
53667;BMP280;39568;51.026;5.468;2022-11-06T10:33:18;100291.16;;;11.39
53667;BMP280;39568;51.026;5.468;2022-11-06T10:35:51;100279.00;;;11.44
53667;BMP280;39568;51.026;5.468;2022-11-06T10:38:22;100278.91;;;11.31
53667;BMP280;39568;51.026;5.468;2022-11-06T10:40:49;100257.63;;;11.25
53667;BMP280;39568;51.026;5.468;2022-11-06T10:43:24;100266.63;;;11.22
53667;BMP280;39568;51.026;5.468;2022-11-06T10:46:00;100233.81;;;11.33
53667;BMP280;39568;51.026;5.468;2022-11-06T10:48:30;100236.66;;;11.40
53667;BMP280;39568;51.026;5.468;2022-11-06T10:51:26;100238.25;;;11.49
53667;BMP280;39568;51.026;5.468;2022-11-06T10:54:07;100211.63;;;11.49
53667;BMP280;39568;51.026;5.468;2022-11-06T10:56:49;100216.41;;;11.75
53667;BMP280;39568;51.026;5.468;2022-11-06T10:59:21;100213.53;;;11.73
53667;BMP280;39568;51.026;5.468;2022-11-06T11:01:56;100221.09;;;11.87
53667;BMP280;39568;51.026;5.468;2022-11-06T11:04:23;100223.16;;;13.21
53667;BMP280;39568;51.026;5.468;2022-11-06T11:06:52;100209.66;;;13.66
53667;BMP280;39568;51.026;5.468;2022-11-06T11:09:27;100204.91;;;13.85
53667;BMP280;39568;51.026;5.468;2022-11-06T11:11:54;100198.50;;;13.28
53667;BMP280;39568;51.026;5.468;2022-11-06T11:14:23;100191.25;;;12.58
53667;BMP280;39568;51.026;5.468;2022-11-06T11:16:50;100187.78;;;12.63
53667;BMP280;39568;51.026;5.468;2022-11-06T11:19:32;100183.19;;;12.90
53667;BMP280;39568;51.026;5.468;2022-11-06T11:22:00;100194.78;;;12.92
53667;BMP280;39568;51.026;5.468;2022-11-06T11:24:27;100193.88;;;13.03
53667;BMP280;39568;51.026;5.468;2022-11-06T11:26:57;100201.13;;;12.63
53667;BMP280;39568;51.026;5.468;2022-11-06T11:29:26;100201.31;;;12.65
53667;BMP280;39568;51.026;5.468;2022-11-06T11:31:55;100187.16;;;12.70
53667;BMP280;39568;51.026;5.468;2022-11-06T11:34:26;100160.72;;;12.72
53667;BMP280;39568;51.026;5.468;2022-11-06T11:37:01;100153.66;;;12.43
53667;BMP280;39568;51.026;5.468;2022-11-06T11:39:30;100142.38;;;12.37
53667;BMP280;39568;51.026;5.468;2022-11-06T11:42:21;100129.28;;;12.20
53667;BMP280;39568;51.026;5.468;2022-11-06T11:45:14;100125.81;;;11.93
53667;BMP280;39568;51.026;5.468;2022-11-06T11:47:43;100115.47;;;12.03
53667;BMP280;39568;51.026;5.468;2022-11-06T11:50:28;100131.84;;;11.94
53667;BMP280;39568;51.026;5.468;2022-11-06T11:52:58;100130.19;;;11.91
53667;BMP280;39568;51.026;5.468;2022-11-06T11:55:30;100120.78;;;11.90
53667;BMP280;39568;51.026;5.468;2022-11-06T11:58:02;100125.47;;;12.16
53667;BMP280;39568;51.026;5.468;2022-11-06T12:00:30;100120.22;;;11.91
53667;BMP280;39568;51.026;5.468;2022-11-06T12:02:59;100122.41;;;11.93
53667;BMP280;39568;51.026;5.468;2022-11-06T12:05:32;100119.78;;;12.06
53667;BMP280;39568;51.026;5.468;2022-11-06T12:08:00;100120.84;;;12.16
53667;BMP280;39568;51.026;5.468;2022-11-06T12:10:30;100118.75;;;12.41
53667;BMP280;39568;51.026;5.468;2022-11-06T12:13:00;100125.69;;;12.18
53667;BMP280;39568;51.026;5.468;2022-11-06T12:15:32;100118.38;;;11.86
53667;BMP280;39568;51.026;5.468;2022-11-06T12:18:10;100109.41;;;11.89
53667;BMP280;39568;51.026;5.468;2022-11-06T12:20:44;100097.06;;;12.18
53667;BMP280;39568;51.026;5.468;2022-11-06T12:23:15;100084.00;;;12.01
53667;BMP280;39568;51.026;5.468;2022-11-06T12:25:57;100074.91;;;11.91
53667;BMP280;39568;51.026;5.468;2022-11-06T12:28:33;100051.50;;;12.03
53667;BMP280;39568;51.026;5.468;2022-11-06T12:31:14;100062.31;;;11.92
53667;BMP280;39568;51.026;5.468;2022-11-06T12:33:46;100070.13;;;11.90
53667;BMP280;39568;51.026;5.468;2022-11-06T12:36:18;100072.59;;;11.69
53667;BMP280;39568;51.026;5.468;2022-11-06T12:38:51;100064.97;;;11.60
53667;BMP280;39568;51.026;5.468;2022-11-06T12:41:26;100079.44;;;11.65
53667;BMP280;39568;51.026;5.468;2022-11-06T12:43:55;100082.16;;;11.59
53667;BMP280;39568;51.026;5.468;2022-11-06T12:46:36;100097.81;;;11.68
53667;BMP280;39568;51.026;5.468;2022-11-06T12:52:21;100098.09;;;11.65
53667;BMP280;39568;51.026;5.468;2022-11-06T12:55:02;100091.53;;;11.66
53667;BMP280;39568;51.026;5.468;2022-11-06T12:57:38;100107.88;;;11.75
53667;BMP280;39568;51.026;5.468;2022-11-06T13:00:15;100098.59;;;11.82
53667;BMP280;39568;51.026;5.468;2022-11-06T13:05:32;100101.19;;;11.50
53667;BMP280;39568;51.026;5.468;2022-11-06T13:08:13;100094.13;;;11.53
53667;BMP280;39568;51.026;5.468;2022-11-06T13:10:47;100091.31;;;11.26
53667;BMP280;39568;51.026;5.468;2022-11-06T13:13:19;100077.25;;;11.07
53667;BMP280;39568;51.026;5.468;2022-11-06T13:15:54;100085.97;;;10.84
53667;BMP280;39568;51.026;5.468;2022-11-06T13:18:29;100080.66;;;10.84
53667;BMP280;39568;51.026;5.468;2022-11-06T13:21:02;100063.66;;;10.68
53667;BMP280;39568;51.026;5.468;2022-11-06T13:23:36;100067.56;;;10.61
53667;BMP280;39568;51.026;5.468;2022-11-06T13:26:09;100063.50;;;10.55
53667;BMP280;39568;51.026;5.468;2022-11-06T13:28:41;100059.75;;;10.45
53667;BMP280;39568;51.026;5.468;2022-11-06T13:31:11;100060.44;;;10.15
53667;BMP280;39568;51.026;5.468;2022-11-06T13:33:46;100075.22;;;10.11
53667;BMP280;39568;51.026;5.468;2022-11-06T13:36:15;100062.06;;;9.94
53667;BMP280;39568;51.026;5.468;2022-11-06T13:38:46;100070.34;;;9.80
53667;BMP280;39568;51.026;5.468;2022-11-06T13:41:19;100064.63;;;9.65
53667;BMP280;39568;51.026;5.468;2022-11-06T13:43:50;100072.19;;;9.55
53667;BMP280;39568;51.026;5.468;2022-11-06T13:46:25;100064.75;;;9.42
53667;BMP280;39568;51.026;5.468;2022-11-06T13:49:01;100058.97;;;9.38
53667;BMP280;39568;51.026;5.468;2022-11-06T13:51:40;100071.06;;;9.39
53667;BMP280;39568;51.026;5.468;2022-11-06T13:54:19;100064.03;;;9.36
53667;BMP280;39568;51.026;5.468;2022-11-06T14:00:16;100079.53;;;9.21
53667;BMP280;39568;51.026;5.468;2022-11-06T14:03:17;100070.91;;;9.15
53667;BMP280;39568;51.026;5.468;2022-11-06T14:05:49;100070.66;;;9.08
53667;BMP280;39568;51.026;5.468;2022-11-06T14:08:21;100072.13;;;8.97
53667;BMP280;39568;51.026;5.468;2022-11-06T14:10:53;100067.31;;;8.90
53667;BMP280;39568;51.026;5.468;2022-11-06T14:13:24;100075.75;;;8.89
53667;BMP280;39568;51.026;5.468;2022-11-06T14:15:59;100037.91;;;8.88
53667;BMP280;39568;51.026;5.468;2022-11-06T14:18:29;100036.94;;;8.86
53667;BMP280;39568;51.026;5.468;2022-11-06T14:24:28;99973.06;;;8.78
53667;BMP280;39568;51.026;5.468;2022-11-06T14:26:55;99977.88;;;8.80
53667;BMP280;39568;51.026;5.468;2022-11-06T14:32:37;99973.56;;;8.66
53667;BMP280;39568;51.026;5.468;2022-11-06T14:38:36;99979.41;;;8.48
53667;BMP280;39568;51.026;5.468;2022-11-06T14:46:58;99960.13;;;8.30
53667;BMP280;39568;51.026;5.468;2022-11-06T14:49:34;99941.13;;;8.37
53667;BMP280;39568;51.026;5.468;2022-11-06T14:52:04;99935.56;;;8.35